Terminal Aerodrome Forecast
Issued by NWS Amarillo, TX

Current Version | Previous Version | Text Only | Print | Product List | Glossary On
Versions: 1 2 3 4 5 6 7 8 9 10 11 12 13 14
000
FTUS44 KAMA 251120
TAFDHT
TAF
KDHT 251120Z 2512/2612 28010KT P6SM SCT300
     FM251400 28016G26KT P6SM BKN300
     FM251900 01015G24KT P6SM BKN100
     FM260000 02010KT P6SM BKN080
     FM260500 36019G29KT P6SM -SHRA OVC015=

USA.gov is the U.S. government's official web portal to all federal, state and local government web resources and services.